createdAt,value
2022-09-12T00:01:17.114Z,66.00
2022-09-12T00:03:45.282Z,66.10
2022-09-12T00:06:21.845Z,65.90
2022-09-12T00:08:51.026Z,65.90
2022-09-12T00:11:20.535Z,65.80
2022-09-12T00:13:48.945Z,65.90
2022-09-12T00:16:18.947Z,65.80
2022-09-12T00:18:47.750Z,65.80
2022-09-12T00:21:16.861Z,65.70
2022-09-12T00:23:45.476Z,65.80
2022-09-12T00:26:14.051Z,65.80
2022-09-12T00:28:43.832Z,66.00
2022-09-12T00:31:14.441Z,66.10
2022-09-12T00:33:43.353Z,66.30
2022-09-12T00:36:14.814Z,66.20
2022-09-12T00:38:43.444Z,66.40
2022-09-12T00:41:16.932Z,66.60
2022-09-12T00:43:47.988Z,66.60
2022-09-12T00:46:29.243Z,66.50
2022-09-12T00:49:01.390Z,66.70
2022-09-12T00:51:31.726Z,66.50
2022-09-12T00:54:01.498Z,66.30
2022-09-12T00:56:30.056Z,66.50
2022-09-12T00:59:06.233Z,66.50
2022-09-12T01:01:37.423Z,66.70
2022-09-12T01:04:05.650Z,66.60
2022-09-12T01:06:38.212Z,66.40
2022-09-12T01:09:06.811Z,66.20
2022-09-12T01:11:40.079Z,66.20
2022-09-12T01:14:10.552Z,66.30
2022-09-12T01:16:39.369Z,66.40
2022-09-12T01:19:37.992Z,66.30
2022-09-12T01:22:21.870Z,66.30
2022-09-12T01:25:09.438Z,66.30
2022-09-12T01:27:46.255Z,66.00
2022-09-12T01:30:33.219Z,65.90
2022-09-12T01:33:26.116Z,65.70
2022-09-12T01:36:08.810Z,65.90
2022-09-12T01:38:40.346Z,65.90
2022-09-12T01:41:17.923Z,66.00
2022-09-12T01:43:51.140Z,66.30
2022-09-12T01:46:25.023Z,66.40
2022-09-12T01:48:58.938Z,66.60
2022-09-12T01:51:30.539Z,66.80
2022-09-12T01:54:04.002Z,67.00
2022-09-12T01:56:35.760Z,67.20
2022-09-12T01:59:10.076Z,67.00
2022-09-12T02:01:44.513Z,66.80
2022-09-12T02:04:15.252Z,66.70
2022-09-12T02:06:47.415Z,66.80
2022-09-12T02:09:23.902Z,66.70
2022-09-12T02:11:55.027Z,66.80
2022-09-12T02:14:26.694Z,67.40
2022-09-12T02:16:59.745Z,66.60
2022-09-12T02:19:32.644Z,66.40
2022-09-12T02:22:03.616Z,66.20
2022-09-12T02:24:37.417Z,66.20
2022-09-12T02:27:09.249Z,66.00
2022-09-12T02:29:37.783Z,65.90
2022-09-12T02:32:12.776Z,66.00
2022-09-12T02:34:46.321Z,66.20
2022-09-12T02:37:26.160Z,66.40
2022-09-12T02:39:55.303Z,66.50
2022-09-12T02:42:24.446Z,66.30
2022-09-12T02:44:53.852Z,66.30
2022-09-12T02:47:28.395Z,66.20
2022-09-12T02:49:57.836Z,66.10
2022-09-12T02:52:26.427Z,66.10
2022-09-12T02:54:55.824Z,66.30
2022-09-12T02:57:23.935Z,66.30
2022-09-12T02:59:54.065Z,66.40
2022-09-12T03:02:31.695Z,66.70
2022-09-12T03:05:23.802Z,66.60
2022-09-12T03:08:22.173Z,66.30
2022-09-12T03:11:12.102Z,66.30
2022-09-12T03:13:49.604Z,66.40
2022-09-12T03:16:27.776Z,66.40
2022-09-12T03:19:04.151Z,66.30
2022-09-12T03:21:38.021Z,66.20
2022-09-12T03:24:17.091Z,66.00
2022-09-12T03:26:51.679Z,66.20
2022-09-12T03:29:21.815Z,66.40
2022-09-12T03:31:52.338Z,66.70
2022-09-12T03:34:23.662Z,66.80
2022-09-12T03:36:52.315Z,66.80
2022-09-12T03:39:21.093Z,66.80
2022-09-12T03:41:49.242Z,66.80
2022-09-12T03:44:17.463Z,67.00
2022-09-12T03:46:46.904Z,67.10
2022-09-12T03:49:15.344Z,66.90
2022-09-12T03:51:45.043Z,66.80
2022-09-12T03:54:13.522Z,66.70
2022-09-12T03:56:42.310Z,66.70
2022-09-12T03:59:10.391Z,66.70
2022-09-12T04:01:38.826Z,66.50
2022-09-12T04:04:06.873Z,66.40
2022-09-12T04:06:35.113Z,66.40
2022-09-12T04:09:05.519Z,66.50
2022-09-12T04:11:33.615Z,66.40
2022-09-12T04:14:01.665Z,66.40
2022-09-12T04:16:29.786Z,66.50
2022-09-12T04:18:57.870Z,66.60
2022-09-12T04:21:26.181Z,66.70
2022-09-12T04:23:54.376Z,66.90
2022-09-12T04:26:23.965Z,66.80
2022-09-12T04:28:56.236Z,66.80
2022-09-12T04:31:24.923Z,66.60
2022-09-12T04:33:55.312Z,66.60
2022-09-12T04:36:23.735Z,66.60
2022-09-12T04:38:52.720Z,66.90
2022-09-12T04:41:23.894Z,67.00
2022-09-12T04:43:54.580Z,66.90
2022-09-12T04:46:22.726Z,66.80
2022-09-12T04:48:54.636Z,66.50
2022-09-12T04:51:28.134Z,66.40
2022-09-12T04:53:58.001Z,66.40
2022-09-12T04:56:28.426Z,66.20
2022-09-12T04:58:59.183Z,66.60
2022-09-12T05:01:28.539Z,66.70
2022-09-12T05:03:57.584Z,66.70
2022-09-12T05:06:27.696Z,66.70
2022-09-12T05:08:57.405Z,66.70
2022-09-12T05:11:46.727Z,66.70
2022-09-12T05:14:17.513Z,66.60
2022-09-12T05:16:49.144Z,66.60
2022-09-12T05:19:17.895Z,66.60
2022-09-12T05:21:46.115Z,66.80
2022-09-12T05:24:14.272Z,66.90
2022-09-12T05:26:43.946Z,66.80
2022-09-12T05:29:13.175Z,66.90
2022-09-12T05:31:41.524Z,67.00
2022-09-12T05:34:10.094Z,67.10
2022-09-12T05:36:38.590Z,67.20
2022-09-12T05:39:06.742Z,67.40
2022-09-12T05:41:36.000Z,67.40
2022-09-12T05:44:07.601Z,67.30
2022-09-12T05:46:39.138Z,67.30
2022-09-12T05:49:08.546Z,67.20
2022-09-12T05:51:39.331Z,67.20
2022-09-12T05:54:09.498Z,67.30
2022-09-12T05:56:46.763Z,67.40
2022-09-12T05:59:18.086Z,67.50
2022-09-12T06:01:46.600Z,67.60
2022-09-12T06:04:14.868Z,67.80
2022-09-12T06:06:45.128Z,68.10
2022-09-12T06:09:15.560Z,68.30
2022-09-12T06:11:43.976Z,68.30
2022-09-12T06:14:14.715Z,68.40
2022-09-12T06:16:44.694Z,68.60
2022-09-12T06:19:16.548Z,68.80
2022-09-12T06:21:45.319Z,69.10
2022-09-12T06:24:13.458Z,69.20
2022-09-12T06:26:41.550Z,69.40
2022-09-12T06:29:11.338Z,69.50
2022-09-12T06:31:41.847Z,69.50
2022-09-12T06:34:14.032Z,69.50
2022-09-12T06:36:43.786Z,69.50
2022-09-12T06:39:13.714Z,69.50
2022-09-12T06:41:44.258Z,69.50
2022-09-12T06:44:15.612Z,69.70
2022-09-12T06:46:44.246Z,69.90
2022-09-12T06:49:14.238Z,69.90
2022-09-12T06:51:43.322Z,70.10
2022-09-12T06:54:14.528Z,70.10
2022-09-12T06:56:42.907Z,70.20
2022-09-12T06:59:11.445Z,70.20
2022-09-12T07:01:41.157Z,70.10
2022-09-12T07:04:09.503Z,70.20
2022-09-12T07:06:40.814Z,70.10
2022-09-12T07:09:11.350Z,70.10
2022-09-12T07:11:41.086Z,70.00
2022-09-12T07:14:11.075Z,70.00
2022-09-12T07:16:39.413Z,69.80
2022-09-12T07:19:09.301Z,69.90
2022-09-12T07:21:40.989Z,69.90
2022-09-12T07:24:10.940Z,69.90
2022-09-12T07:26:40.301Z,69.70
2022-09-12T07:29:34.749Z,69.80
2022-09-12T07:31:57.270Z,69.80
2022-09-12T07:34:25.358Z,69.70
2022-09-12T07:36:54.891Z,69.60
2022-09-12T07:39:23.042Z,69.50
2022-09-12T07:41:51.376Z,69.40
2022-09-12T07:44:19.436Z,69.20
2022-09-12T07:46:47.487Z,69.10
2022-09-12T07:49:15.850Z,69.10
2022-09-12T07:51:43.943Z,69.10
2022-09-12T07:54:13.632Z,69.10
2022-09-12T07:56:41.834Z,69.00
2022-09-12T07:59:10.303Z,68.70
2022-09-12T08:01:39.856Z,68.50
2022-09-12T08:04:08.263Z,68.30
2022-09-12T08:06:37.087Z,68.30
2022-09-12T08:09:07.851Z,68.00
2022-09-12T08:11:37.335Z,67.80
2022-09-12T08:14:05.804Z,67.80
2022-09-12T08:16:35.137Z,67.70
2022-09-12T08:19:04.504Z,67.40
2022-09-12T08:21:35.210Z,67.30
2022-09-12T08:24:05.921Z,67.10
2022-09-12T08:26:36.073Z,66.90
2022-09-12T08:29:05.999Z,66.90
2022-09-12T08:31:36.581Z,66.90
2022-09-12T08:34:06.656Z,66.70
2022-09-12T08:36:35.502Z,66.40
2022-09-12T08:39:06.091Z,66.30
2022-09-12T08:41:37.569Z,66.10
2022-09-12T08:44:32.408Z,65.70
2022-09-12T08:47:16.116Z,65.20
2022-09-12T08:49:52.592Z,64.80
2022-09-12T08:52:25.211Z,64.00
2022-09-12T08:54:55.897Z,63.80
2022-09-12T08:57:25.039Z,64.00
2022-09-12T08:59:54.883Z,63.60
2022-09-12T09:02:53.347Z,63.00
2022-09-12T09:05:26.015Z,62.70
2022-09-12T09:08:31.223Z,62.20
2022-09-12T09:11:09.456Z,62.10
2022-09-12T09:14:06.367Z,61.50
2022-09-12T09:16:38.833Z,61.10
2022-09-12T09:19:12.665Z,61.10
2022-09-12T09:21:45.642Z,61.00
2022-09-12T09:24:18.019Z,60.70
2022-09-12T09:26:52.644Z,60.60
2022-09-12T09:29:23.626Z,59.90
2022-09-12T09:31:55.974Z,59.90
2022-09-12T09:34:26.162Z,59.80
2022-09-12T09:37:01.063Z,59.80
2022-09-12T09:39:42.426Z,59.30
2022-09-12T09:42:19.335Z,58.90
2022-09-12T09:44:49.113Z,58.80
2022-09-12T09:47:20.658Z,58.80
2022-09-12T09:49:48.767Z,58.40
2022-09-12T09:52:29.624Z,58.30
2022-09-12T09:55:01.222Z,57.70
2022-09-12T09:57:44.322Z,57.80
2022-09-12T10:00:40.677Z,57.60
2022-09-12T10:03:29.447Z,57.40
2022-09-12T10:06:01.339Z,57.30
2022-09-12T10:08:31.036Z,57.20
2022-09-12T10:11:02.057Z,57.20
2022-09-12T10:13:37.841Z,56.80
2022-09-12T10:16:08.448Z,56.60
2022-09-12T10:18:42.199Z,56.50
2022-09-12T10:21:17.639Z,56.40
2022-09-12T10:23:47.564Z,56.20
2022-09-12T10:26:20.075Z,56.20
2022-09-12T10:28:53.202Z,56.00
2022-09-12T10:31:29.547Z,55.90
2022-09-12T10:34:01.118Z,55.60
2022-09-12T10:36:37.566Z,55.50
2022-09-12T10:39:07.048Z,56.70
2022-09-12T10:41:40.810Z,55.60
2022-09-12T10:44:15.115Z,54.80
2022-09-12T10:46:43.216Z,54.90
2022-09-12T10:49:22.973Z,54.90
2022-09-12T10:51:51.560Z,54.40
2022-09-12T10:54:22.444Z,54.70
2022-09-12T10:57:00.516Z,54.70
2022-09-12T10:59:35.799Z,54.40
2022-09-12T11:02:15.877Z,54.00
2022-09-12T11:04:59.203Z,54.60
2022-09-12T11:07:41.703Z,53.20
2022-09-12T11:10:24.687Z,53.30
2022-09-12T11:13:00.396Z,53.10
2022-09-12T11:15:44.801Z,53.30
2022-09-12T11:18:23.395Z,52.70
2022-09-12T11:21:25.223Z,52.80
2022-09-12T11:24:21.426Z,52.80
2022-09-12T11:27:01.738Z,52.80
2022-09-12T11:29:42.803Z,51.80
2022-09-12T11:32:37.154Z,51.70
2022-09-12T11:35:17.739Z,51.30
2022-09-12T11:38:11.623Z,51.50
2022-09-12T11:40:45.497Z,51.50
2022-09-12T11:43:31.047Z,51.30
2022-09-12T11:46:06.846Z,50.80
2022-09-12T11:48:41.167Z,50.60
2022-09-12T11:51:19.527Z,50.50
2022-09-12T11:54:00.090Z,50.60
2022-09-12T11:56:28.276Z,50.40
2022-09-12T11:59:02.701Z,50.90
2022-09-12T12:01:41.971Z,50.90
2022-09-12T12:04:13.979Z,50.50
2022-09-12T12:06:52.348Z,50.60
2022-09-12T12:09:22.199Z,50.30
2022-09-12T12:11:56.186Z,50.50
2022-09-12T12:14:28.159Z,50.10
2022-09-12T12:16:56.407Z,50.10
2022-09-12T12:19:34.747Z,49.80
2022-09-12T12:22:16.508Z,49.40
2022-09-12T12:25:06.384Z,49.70
2022-09-12T12:27:53.261Z,51.20
2022-09-12T12:31:00.767Z,50.10
2022-09-12T12:33:57.308Z,49.90
2022-09-12T12:36:50.565Z,50.10
2022-09-12T12:40:04.812Z,49.50
2022-09-12T12:43:06.035Z,49.80
2022-09-12T12:46:05.392Z,49.80
2022-09-12T12:48:44.763Z,49.50
2022-09-12T12:51:36.975Z,50.00
2022-09-12T12:54:12.342Z,49.40
2022-09-12T12:56:43.495Z,49.40
2022-09-12T12:59:20.888Z,49.30
2022-09-12T13:01:55.164Z,49.00
2022-09-12T13:04:26.521Z,49.30
2022-09-12T13:07:05.867Z,48.50
2022-09-12T13:09:40.178Z,48.40
2022-09-12T13:12:10.514Z,48.60
2022-09-12T13:14:52.704Z,48.90
2022-09-12T13:17:26.530Z,48.30
2022-09-12T13:20:26.747Z,48.40
2022-09-12T13:22:54.200Z,48.70
2022-09-12T13:25:30.908Z,48.60
2022-09-12T13:28:18.594Z,48.50
2022-09-12T13:30:57.213Z,48.30
2022-09-12T13:33:32.674Z,48.10
2022-09-12T13:36:13.532Z,47.90
2022-09-12T13:38:52.491Z,47.80
2022-09-12T13:41:33.308Z,47.90
2022-09-12T13:44:03.534Z,47.90
2022-09-12T13:46:35.364Z,48.10
2022-09-12T13:49:11.786Z,48.20
2022-09-12T13:51:40.493Z,48.10
2022-09-12T13:54:08.754Z,48.00
2022-09-12T13:56:48.699Z,47.90
2022-09-12T13:59:16.980Z,47.80
2022-09-12T14:01:48.206Z,47.70
2022-09-12T14:04:36.248Z,46.50
2022-09-12T14:07:12.941Z,46.50
2022-09-12T14:09:43.575Z,46.60
2022-09-12T14:12:22.599Z,46.40
2022-09-12T14:14:52.745Z,46.70
2022-09-12T14:17:29.448Z,47.10
2022-09-12T14:19:59.475Z,46.80
2022-09-12T14:22:29.914Z,46.80
2022-09-12T14:24:59.575Z,46.50
2022-09-12T14:27:30.334Z,46.20
2022-09-12T14:30:03.356Z,46.10
2022-09-12T14:32:33.104Z,45.70
2022-09-12T14:35:19.813Z,45.90
2022-09-12T14:37:51.557Z,46.30
2022-09-12T14:40:22.267Z,46.60
2022-09-12T14:42:52.673Z,46.50
2022-09-12T14:45:26.432Z,46.40
2022-09-12T14:47:56.782Z,46.20
2022-09-12T14:50:27.698Z,46.50
2022-09-12T14:53:06.447Z,46.40
2022-09-12T14:55:43.107Z,45.80
2022-09-12T14:58:26.319Z,46.30
2022-09-12T15:01:22.235Z,46.00
2022-09-12T15:03:57.039Z,46.10
2022-09-12T15:06:30.053Z,45.70
2022-09-12T15:09:00.835Z,46.10
2022-09-12T15:11:29.395Z,44.90
2022-09-12T15:13:57.652Z,44.80
2022-09-12T15:16:25.904Z,44.50
2022-09-12T15:18:55.450Z,44.60
2022-09-12T15:21:23.608Z,44.60
2022-09-12T15:23:53.798Z,44.80
2022-09-12T15:26:23.639Z,45.00
2022-09-12T15:28:52.057Z,44.80
2022-09-12T15:31:25.362Z,45.80
2022-09-12T15:33:55.530Z,45.20
2022-09-12T15:36:25.061Z,45.60
2022-09-12T15:38:54.539Z,45.80
2022-09-12T15:41:24.640Z,45.90
2022-09-12T15:43:52.745Z,46.00
2022-09-12T15:46:21.513Z,46.00
2022-09-12T15:48:50.166Z,45.90
2022-09-12T15:51:21.746Z,46.00
2022-09-12T15:53:50.258Z,45.90
2022-09-12T15:56:21.094Z,47.00
2022-09-12T15:59:05.212Z,46.00
2022-09-12T16:01:33.452Z,45.90
2022-09-12T16:04:03.951Z,46.00
2022-09-12T16:06:37.138Z,45.80
2022-09-12T16:09:05.813Z,45.90
2022-09-12T16:11:34.118Z,46.20
2022-09-12T16:14:03.707Z,46.10
2022-09-12T16:16:31.876Z,46.00
2022-09-12T16:19:00.526Z,46.00
2022-09-12T16:21:30.105Z,45.70
2022-09-12T16:23:59.617Z,45.20
2022-09-12T16:26:27.788Z,45.50
2022-09-12T16:28:57.922Z,45.70
2022-09-12T16:31:26.911Z,45.70
2022-09-12T16:33:55.131Z,45.90
2022-09-12T16:36:24.413Z,46.00
2022-09-12T16:38:54.818Z,46.10
2022-09-12T16:41:26.390Z,46.00
2022-09-12T16:43:54.853Z,46.20
2022-09-12T16:46:24.841Z,46.90
2022-09-12T16:48:54.589Z,46.20
2022-09-12T16:51:24.686Z,46.30
2022-09-12T16:53:53.506Z,46.30
2022-09-12T16:56:23.503Z,46.30
2022-09-12T16:58:52.347Z,46.50
2022-09-12T17:01:22.713Z,46.60
2022-09-12T17:03:54.330Z,46.60
2022-09-12T17:06:22.949Z,46.70
2022-09-12T17:08:53.377Z,46.90
2022-09-12T17:11:24.913Z,46.90
2022-09-12T17:14:09.968Z,46.90
2022-09-12T17:16:39.770Z,47.00
2022-09-12T17:19:09.378Z,47.00
2022-09-12T17:21:37.665Z,47.00
2022-09-12T17:24:06.010Z,47.20
2022-09-12T17:26:35.566Z,47.20
2022-09-12T17:29:03.934Z,47.30
2022-09-12T17:31:33.143Z,47.40
2022-09-12T17:34:02.147Z,47.70
2022-09-12T17:36:31.956Z,47.80
2022-09-12T17:39:00.539Z,48.00
2022-09-12T17:41:31.998Z,48.20
2022-09-12T17:44:03.122Z,48.30
2022-09-12T17:46:34.973Z,48.40
2022-09-12T17:49:04.523Z,48.60
2022-09-12T17:51:32.952Z,48.70
2022-09-12T17:54:03.056Z,49.00
2022-09-12T17:56:33.057Z,49.10
2022-09-12T17:59:02.581Z,49.30
2022-09-12T18:01:49.151Z,49.40
2022-09-12T18:04:17.953Z,49.50
2022-09-12T18:06:48.819Z,49.70
2022-09-12T18:09:19.582Z,49.80
2022-09-12T18:11:48.426Z,50.00
2022-09-12T18:14:19.269Z,50.00
2022-09-12T18:16:48.191Z,50.10
2022-09-12T18:19:17.336Z,50.20
2022-09-12T18:21:45.643Z,50.20
2022-09-12T18:24:14.107Z,50.30
2022-09-12T18:26:43.570Z,50.40
2022-09-12T18:29:12.536Z,50.50
2022-09-12T18:31:42.062Z,50.70
2022-09-12T18:34:13.603Z,50.90
2022-09-12T18:36:41.963Z,51.00
2022-09-12T18:39:29.208Z,51.10
2022-09-12T18:41:57.412Z,51.10
2022-09-12T18:44:25.554Z,51.30
2022-09-12T18:46:55.015Z,51.50
2022-09-12T18:49:24.706Z,51.60
2022-09-12T18:51:52.803Z,51.70
2022-09-12T18:54:20.944Z,51.70
2022-09-12T18:56:49.191Z,52.00
2022-09-12T18:59:17.754Z,52.10
2022-09-12T19:01:46.000Z,52.30
2022-09-12T19:04:17.438Z,52.20
2022-09-12T19:06:48.198Z,52.30
2022-09-12T19:09:18.273Z,52.40
2022-09-12T19:11:49.984Z,52.50
2022-09-12T19:14:19.606Z,52.50
2022-09-12T19:16:47.696Z,52.50
2022-09-12T19:19:17.603Z,52.70
2022-09-12T19:21:46.150Z,52.90
2022-09-12T19:24:14.774Z,53.10
2022-09-12T19:26:43.150Z,53.20
2022-09-12T19:29:14.322Z,53.30
2022-09-12T19:31:45.334Z,53.50
2022-09-12T19:34:14.315Z,53.40
2022-09-12T19:36:45.946Z,53.50
2022-09-12T19:39:16.186Z,53.60
2022-09-12T19:41:44.823Z,53.70
2022-09-12T19:44:13.156Z,53.80
2022-09-12T19:46:41.767Z,53.90
2022-09-12T19:49:11.753Z,53.90
2022-09-12T19:51:40.328Z,54.10
2022-09-12T19:54:09.904Z,54.30
2022-09-12T19:56:38.337Z,54.50
2022-09-12T19:59:06.579Z,54.70
2022-09-12T20:01:36.935Z,54.70
2022-09-12T20:04:06.786Z,54.90
2022-09-12T20:06:35.100Z,54.90
2022-09-12T20:09:03.438Z,55.00
2022-09-12T20:11:32.918Z,55.20
2022-09-12T20:14:01.119Z,55.30
2022-09-12T20:16:30.099Z,55.30
2022-09-12T20:19:00.187Z,55.50
2022-09-12T20:21:32.969Z,55.50
2022-09-12T20:24:02.670Z,55.60
2022-09-12T20:26:32.384Z,55.60
2022-09-12T20:29:00.548Z,55.70
2022-09-12T20:31:29.080Z,55.90
2022-09-12T20:33:57.865Z,56.10
2022-09-12T20:36:26.662Z,56.20
2022-09-12T20:38:56.822Z,56.40
2022-09-12T20:41:26.241Z,56.60
2022-09-12T20:43:57.178Z,56.60
2022-09-12T20:46:26.388Z,56.90
2022-09-12T20:48:54.559Z,56.80
2022-09-12T20:51:24.532Z,56.90
2022-09-12T20:53:55.082Z,56.90
2022-09-12T20:56:24.185Z,56.90
2022-09-12T20:58:52.338Z,56.90
2022-09-12T21:01:22.730Z,57.00
2022-09-12T21:03:50.844Z,57.10
2022-09-12T21:06:19.564Z,57.10
2022-09-12T21:08:49.022Z,57.20
2022-09-12T21:11:18.339Z,57.20
2022-09-12T21:13:46.865Z,57.20
2022-09-12T21:16:17.040Z,57.30
2022-09-12T21:18:46.744Z,57.30
2022-09-12T21:21:16.923Z,57.30
2022-09-12T21:23:45.339Z,57.20
2022-09-12T21:26:13.858Z,57.30
2022-09-12T21:28:42.098Z,57.20
2022-09-12T21:31:10.291Z,57.30
2022-09-12T21:33:38.512Z,57.40
2022-09-12T21:36:09.549Z,57.50
2022-09-12T21:38:37.724Z,57.80
2022-09-12T21:41:08.752Z,57.80
2022-09-12T21:43:39.121Z,57.90
2022-09-12T21:46:08.421Z,58.00
2022-09-12T21:48:37.417Z,58.60
2022-09-12T21:51:07.432Z,58.20
2022-09-12T21:53:35.711Z,58.20
2022-09-12T21:56:05.090Z,58.20
2022-09-12T21:58:33.257Z,58.20
2022-09-12T22:01:01.583Z,58.10
2022-09-12T22:03:30.744Z,58.10
2022-09-12T22:06:00.052Z,58.10
2022-09-12T22:08:30.829Z,58.10
2022-09-12T22:11:00.878Z,58.10
2022-09-12T22:13:32.419Z,58.00
2022-09-12T22:16:04.682Z,58.00
2022-09-12T22:18:35.000Z,58.10
2022-09-12T22:21:05.557Z,58.10
2022-09-12T22:23:52.524Z,58.20
2022-09-12T22:26:21.156Z,58.30
2022-09-12T22:28:50.389Z,58.30
2022-09-12T22:31:18.941Z,58.30
2022-09-12T22:33:48.045Z,58.40
2022-09-12T22:36:16.463Z,58.50
2022-09-12T22:38:46.031Z,58.50
2022-09-12T22:41:14.262Z,58.60
2022-09-12T22:43:42.604Z,58.60
2022-09-12T22:46:12.544Z,58.70
2022-09-12T22:48:41.109Z,58.70
2022-09-12T22:51:10.147Z,58.70
2022-09-12T22:53:38.488Z,58.70
2022-09-12T22:56:08.508Z,58.70
2022-09-12T22:58:37.869Z,58.80
2022-09-12T23:01:06.894Z,58.70
2022-09-12T23:03:35.468Z,58.70
2022-09-12T23:06:04.322Z,58.80
2022-09-12T23:08:33.001Z,59.00
2022-09-12T23:11:02.550Z,59.00
2022-09-12T23:13:32.274Z,59.10
2022-09-12T23:16:01.067Z,59.20
2022-09-12T23:18:29.617Z,59.30
2022-09-12T23:21:02.377Z,59.40
2022-09-12T23:23:30.850Z,59.50
2022-09-12T23:26:10.803Z,59.60
2022-09-12T23:28:41.237Z,59.70
2022-09-12T23:31:12.529Z,59.60
2022-09-12T23:33:40.675Z,60.30
2022-09-12T23:36:14.309Z,59.60
2022-09-12T23:38:43.868Z,59.70
2022-09-12T23:41:13.702Z,59.80
2022-09-12T23:43:45.291Z,59.90
2022-09-12T23:46:14.328Z,59.90
2022-09-12T23:48:43.065Z,59.90
2022-09-12T23:51:12.101Z,59.90
2022-09-12T23:53:41.104Z,59.90
2022-09-12T23:56:09.266Z,60.00
2022-09-12T23:58:37.690Z,60.00
